Soaring Guidance
Issued by NWS Reno, NV

Home | Current Version | Previous Version | Text Only | Print | Product List | Glossary On
Versions: 1 2 3 4 5 6 7 8 9 10 11
000
UXUS97 KREV 071346
SRGREV

SOARING FORECAST
NATIONAL WEATHER SERVICE - RENO NV
700 AM PDT TUE JUL 7 2015

THIS SOARING FORECAST IS FOR THE EASTERN SIERRA AND WESTERN NEVADA
WITH SPECIFIC INDICES FOR THE GREATER RENO AREA.

THIS FORECAST IS PREPARED DAILY BY 700 AM AND IS NOT UPDATED.

FOR CURRENT FLIGHT CONDITIONS...FORECASTS...AND ADVISORIES...ACCESS
YOUR LOCAL BRIEFING OUTLET OR FLIGHT SERVICE STATION.

*******************************************************************
FORECASTED LOCAL INDICES FOR RENO:        TODAY     YESTERDAY
FORECASTED MAX TEMP AT RENO (DEG F).....     86          93
FORECASTED TRIGGER TEMPERATURE (DEG F)..     78          79
   EXCEEDED YESTERDAY BY 1055 AM PDT
FORECASTED MAXIMUM ALTITUDE (FT MSL)....  15000       17300
FORECASTED SOARING INDEX (FPM)..........    930        1149
FORECASTED K-INDEX.........VALID 18Z....     28          28
FORECASTED K-INDEX.........VALID 00Z....     38          34
FORECASTED LIFTED INDEX....VALID 18Z....      0           2
FORECASTED LIFTED INDEX....VALID 00Z....     -1           0

AFTERNOON WINDS ALOFT FORECAST
MSL (FT) WIND/TEMP
9000  9900/+13
10000 9900/+10
12000 9900/+05
14000 9903/+00
16000 9906/-05
18000 1216/-10
24000 1224/-21
30000 1331/-37
34000 1430/-47
39000 1527/-57

SLIDE MOUNTAIN DATA:
     DATE       TIME     TEMP  DEWPT   RH         WIND (MPH)
                        (F)   (F)           | DIR  SPEED GUST
2015-07-07    05:50      53    36     53    | 180    7   10
2015-07-07    05:30      52    36     53    | 186    5    9
2015-07-07    05:20      52    36     54    | 181    7   10
2015-07-07    05:00      52    36     54    | 167    9   13

RENO TAF FORECAST:
KRNO 071125Z 0712/0812 VRB04KT P6SM BKN150
     FM071600 VRB04KT P6SM SCT150 SCT250
     FM072300 19007KT P6SM VCTS SCT070CB BKN120
     FM080200 32007KT P6SM VCSH SCT070 SCT120 BKN250
     FM080500 VRB04KT P6SM SCT120 BKN250

CARSON CITY TAF FORECAST:
KCXP 071125Z 0712/0812 VRB04KT P6SM BKN150
     FM071700 08008KT P6SM SCT150 SCT250
     FM072200 08008G18KT P6SM VCTS SCT070CB BKN110
     FM080200 26008KT P6SM VCSH SCT070 SCT120 BKN250
     FM080500 VRB04KT P6SM SCT120 BKN250

OUTLOOK FOR THE RENO-CARSON CITY-MINDEN AREA:
.WEDNESDAY...MOSTLY CLOUDY. ISOLATED SHOWERS AND THUNDERSTORMS IN
THE MORNING...THEN SCATTERED SHOWERS AND THUNDERSTORMS IN THE
AFTERNOON. HIGHS 81 TO 86. NORTH WINDS UP TO 10 MPH IN THE
MORNING BECOMING LIGHT.

SUNRISE AND SUNSET
JULY  7 2015..........SUNRISE   539 AM PDT   SUNSET   829 PM PDT
JULY  8 2015..........SUNRISE   539 AM PDT   SUNSET   829 PM PDT


USA.gov is the U.S. government's official web portal to all federal, state and local government web resources and services.